createdAt,value
2018-04-25T00:02:16.386Z,9.20
2018-04-25T00:04:44.637Z,11.97
2018-04-25T00:07:12.891Z,10.20
2018-04-25T00:09:41.904Z,7.17
2018-04-25T00:12:10.155Z,8.40
2018-04-25T00:14:38.395Z,10.30
2018-04-25T00:17:06.648Z,6.23
2018-04-25T00:19:34.891Z,7.73
2018-04-25T00:22:03.143Z,5.93
2018-04-25T00:24:31.493Z,6.40
2018-04-25T00:26:59.652Z,7.70
2018-04-25T00:29:28.675Z,11.10
2018-04-25T00:31:56.923Z,8.00
2018-04-25T00:34:25.935Z,6.73
2018-04-25T00:36:54.186Z,7.87
2018-04-25T00:39:22.444Z,12.07
2018-04-25T00:41:50.694Z,8.13
2018-04-25T00:44:18.950Z,7.57
2018-04-25T00:46:47.965Z,7.73
2018-04-25T00:49:16.219Z,9.77
2018-04-25T00:51:45.156Z,7.45
2018-04-25T00:54:13.427Z,10.67
2018-04-25T00:56:41.655Z,9.70
2018-04-25T00:59:09.904Z,7.33
2018-04-25T01:01:38.165Z,5.57
2018-04-25T01:04:06.416Z,9.70
2018-04-25T01:06:35.426Z,6.20
2018-04-25T01:09:04.443Z,7.87
2018-04-25T01:11:32.692Z,8.10
2018-04-25T01:14:01.719Z,6.73
2018-04-25T01:16:29.969Z,7.53
2018-04-25T01:18:58.215Z,5.10
2018-04-25T01:21:26.457Z,8.80
2018-04-25T01:23:54.710Z,7.50
2018-04-25T01:26:23.715Z,8.53
2018-04-25T01:28:53.431Z,6.78
2018-04-25T01:31:55.978Z,8.10
2018-04-25T01:34:34.250Z,9.43
2018-04-25T01:37:09.964Z,7.37
2018-04-25T01:39:41.636Z,7.87
2018-04-25T01:42:21.642Z,8.43
2018-04-25T01:47:48.815Z,8.13
2018-04-25T01:53:34.775Z,7.93
2018-04-25T01:56:20.743Z,6.80
2018-04-25T01:59:06.429Z,8.17
2018-04-25T02:01:33.882Z,6.83
2018-04-25T02:04:02.363Z,9.67
2018-04-25T02:06:30.618Z,7.80
2018-04-25T02:08:58.859Z,6.40
2018-04-25T02:11:27.899Z,5.60
2018-04-25T02:13:56.139Z,5.33
2018-04-25T02:16:25.165Z,8.47
2018-04-25T02:18:53.411Z,7.00
2018-04-25T02:21:21.666Z,8.20
2018-04-25T02:23:49.908Z,11.30
2018-04-25T02:26:18.184Z,6.50
2018-04-25T02:28:46.438Z,6.43
2018-04-25T02:31:15.927Z,8.07
2018-04-25T02:33:44.171Z,11.13
2018-04-25T02:36:12.428Z,8.50
2018-04-25T02:38:40.692Z,6.03
2018-04-25T02:41:09.588Z,5.73
2018-04-25T02:43:38.601Z,10.60
2018-04-25T02:46:06.851Z,9.07
2018-04-25T02:48:35.103Z,8.53
2018-04-25T02:51:03.354Z,7.27
2018-04-25T02:53:31.601Z,7.20
2018-04-25T02:56:00.629Z,9.17
2018-04-25T02:58:28.874Z,5.70
2018-04-25T03:00:57.125Z,7.47
2018-04-25T03:03:25.375Z,12.77
2018-04-25T03:05:53.636Z,7.30
2018-04-25T03:08:22.648Z,9.77
2018-04-25T03:10:50.894Z,11.67
2018-04-25T03:13:19.910Z,6.93
2018-04-25T03:15:48.178Z,10.03
2018-04-25T03:18:17.203Z,8.50
2018-04-25T03:20:45.458Z,4.63
2018-04-25T03:23:14.286Z,4.82
2018-04-25T03:25:42.634Z,9.47
2018-04-25T03:28:11.639Z,7.03
2018-04-25T03:30:40.649Z,6.93
2018-04-25T03:33:08.904Z,6.17
2018-04-25T03:35:37.922Z,7.35
2018-04-25T03:38:06.171Z,6.40
2018-04-25T03:40:34.423Z,6.07
2018-04-25T03:43:02.669Z,6.03
2018-04-25T03:45:30.927Z,9.03
2018-04-25T03:47:59.935Z,8.40
2018-04-25T03:50:28.200Z,8.00
2018-04-25T03:52:57.222Z,8.83
2018-04-25T03:55:25.468Z,5.67
2018-04-25T03:57:53.741Z,6.73
2018-04-25T04:00:21.986Z,6.40
2018-04-25T04:02:50.227Z,8.97
2018-04-25T04:05:18.681Z,7.05
2018-04-25T04:07:46.945Z,8.23
2018-04-25T04:10:15.192Z,8.67
2018-04-25T04:12:43.444Z,9.90
2018-04-25T04:15:12.454Z,9.93
2018-04-25T04:17:40.711Z,11.07
2018-04-25T04:20:08.956Z,7.90
2018-04-25T04:22:37.210Z,7.93
2018-04-25T04:25:05.455Z,6.97
2018-04-25T04:27:34.480Z,10.35
2018-04-25T04:30:02.723Z,6.20
2018-04-25T04:32:30.979Z,8.47
2018-04-25T04:34:59.222Z,7.97
2018-04-25T04:37:27.479Z,7.33
2018-04-25T04:39:56.495Z,7.97
2018-04-25T04:42:25.513Z,9.43
2018-04-25T04:44:53.947Z,8.50
2018-04-25T04:47:22.199Z,9.73
2018-04-25T04:49:50.448Z,8.40
2018-04-25T04:52:18.710Z,9.57
2018-04-25T04:54:47.707Z,7.57
2018-04-25T04:57:16.735Z,10.30
2018-04-25T04:59:45.048Z,9.37
2018-04-25T05:02:14.008Z,4.63
2018-04-25T05:04:42.251Z,6.57
2018-04-25T05:07:11.283Z,8.68
2018-04-25T05:09:39.525Z,9.37
2018-04-25T05:12:07.779Z,7.80
2018-04-25T05:14:36.027Z,9.07
2018-04-25T05:17:04.284Z,6.37
2018-04-25T05:19:34.545Z,6.10
2018-04-25T05:22:02.812Z,5.33
2018-04-25T05:24:31.148Z,6.60
2018-04-25T05:27:00.100Z,8.07
2018-04-25T05:29:28.363Z,5.90
2018-04-25T05:31:56.657Z,7.47
2018-04-25T05:34:25.663Z,5.83
2018-04-25T05:36:53.908Z,5.90
2018-04-25T05:39:22.168Z,5.43
2018-04-25T05:41:50.423Z,5.23
2018-04-25T05:44:18.674Z,6.03
2018-04-25T05:46:46.947Z,11.57
2018-04-25T05:49:15.203Z,7.80
2018-04-25T05:51:44.275Z,6.63
2018-04-25T05:54:12.483Z,9.17
2018-04-25T05:56:41.507Z,6.05
2018-04-25T05:59:09.776Z,7.00
2018-04-25T06:01:38.036Z,10.03
2018-04-25T06:04:07.059Z,6.80
2018-04-25T06:06:35.309Z,9.47
2018-04-25T06:09:04.344Z,6.07
2018-04-25T06:11:32.599Z,8.53
2018-04-25T06:14:01.629Z,7.83
2018-04-25T06:16:29.883Z,9.27
2018-04-25T06:18:58.908Z,7.97
2018-04-25T06:21:27.327Z,6.80
2018-04-25T06:23:55.567Z,5.73
2018-04-25T06:26:23.832Z,5.33
2018-04-25T06:28:52.103Z,11.87
2018-04-25T06:31:21.127Z,9.65
2018-04-25T06:33:49.392Z,9.02
2018-04-25T06:36:17.646Z,5.07
2018-04-25T06:38:46.675Z,8.07
2018-04-25T06:41:14.924Z,7.35
2018-04-25T06:43:43.955Z,7.15
2018-04-25T06:46:12.228Z,12.02
2018-04-25T06:48:40.482Z,5.80
2018-04-25T06:51:09.500Z,8.85
2018-04-25T06:53:37.762Z,11.12
2018-04-25T06:56:06.784Z,5.22
2018-04-25T06:58:35.127Z,7.32
2018-04-25T07:01:04.100Z,7.85
2018-04-25T07:03:32.368Z,5.32
2018-04-25T07:06:00.632Z,10.50
2018-04-25T07:08:28.892Z,10.57
2018-04-25T07:10:57.151Z,8.50
2018-04-25T07:13:26.184Z,7.90
2018-04-25T07:15:54.440Z,9.10
2018-04-25T07:18:23.458Z,8.38
2018-04-25T07:20:51.706Z,7.17
2018-04-25T07:23:20.734Z,12.32
2018-04-25T07:25:49.138Z,10.07
2018-04-25T07:28:17.416Z,8.50
2018-04-25T07:30:45.690Z,7.73
2018-04-25T07:33:13.948Z,12.47
2018-04-25T07:35:43.189Z,10.64
2018-04-25T07:38:11.439Z,6.72
2018-04-25T07:40:39.723Z,12.13
2018-04-25T07:43:08.003Z,7.68
2018-04-25T07:45:36.242Z,12.70
2018-04-25T07:48:04.492Z,7.00
2018-04-25T07:50:32.761Z,9.30
2018-04-25T07:53:01.016Z,8.98
2018-04-25T07:55:30.046Z,14.55
2018-04-25T07:57:58.303Z,10.77
2018-04-25T08:00:26.570Z,8.70
2018-04-25T08:02:55.589Z,8.03
2018-04-25T08:05:23.860Z,9.50
2018-04-25T08:07:52.125Z,7.70
2018-04-25T08:10:21.158Z,11.80
2018-04-25T08:13:07.127Z,11.67
2018-04-25T08:15:52.819Z,9.68
2018-04-25T08:18:38.895Z,14.07
2018-04-25T08:21:25.036Z,9.93
2018-04-25T08:23:53.296Z,10.25
2018-04-25T08:26:21.568Z,16.03
2018-04-25T08:28:49.828Z,10.65
2018-04-25T08:31:18.101Z,9.70
2018-04-25T08:33:46.373Z,8.60
2018-04-25T08:36:14.649Z,8.43
2018-04-25T08:38:43.756Z,10.93
2018-04-25T08:41:12.028Z,8.95
2018-04-25T08:43:41.048Z,11.25
2018-04-25T08:46:09.307Z,8.38
2018-04-25T08:48:38.336Z,11.17
2018-04-25T08:51:06.589Z,9.17
2018-04-25T08:53:35.730Z,9.80
2018-04-25T08:56:04.000Z,12.77
2018-04-25T08:58:32.254Z,9.63
2018-04-25T09:01:00.522Z,16.40
2018-04-25T09:03:29.548Z,14.15
2018-04-25T09:05:57.807Z,10.63
2018-04-25T09:08:26.828Z,9.27
2018-04-25T09:10:55.101Z,11.53
2018-04-25T09:13:23.350Z,11.88
2018-04-25T09:15:52.383Z,8.60
2018-04-25T09:18:20.647Z,10.57
2018-04-25T09:20:48.908Z,9.40
2018-04-25T09:23:17.920Z,9.37
2018-04-25T09:25:47.225Z,12.44
2018-04-25T09:28:15.479Z,9.57
2018-04-25T09:30:43.747Z,9.50
2018-04-25T09:33:12.009Z,12.48
2018-04-25T09:35:40.281Z,9.80
2018-04-25T09:38:08.540Z,13.88
2018-04-25T09:40:36.812Z,17.60
2018-04-25T09:43:05.073Z,12.13
2018-04-25T09:45:34.095Z,6.95
2018-04-25T09:48:02.358Z,10.43
2018-04-25T09:50:31.388Z,13.77
2018-04-25T09:52:59.648Z,11.83
2018-04-25T09:55:27.911Z,8.85
2018-04-25T09:57:56.957Z,7.80
2018-04-25T10:00:30.456Z,8.93
2018-04-25T10:02:58.980Z,9.97
2018-04-25T10:05:27.235Z,10.17
2018-04-25T10:07:55.496Z,10.13
2018-04-25T10:10:23.771Z,11.35
2018-04-25T10:12:52.030Z,9.13
2018-04-25T10:15:21.055Z,8.90
2018-04-25T10:17:49.311Z,10.52
2018-04-25T10:20:17.565Z,10.82
2018-04-25T10:22:45.848Z,12.17
2018-04-25T10:25:14.116Z,8.07
2018-04-25T10:27:42.371Z,9.88
2018-04-25T10:30:10.624Z,9.00
2018-04-25T10:32:38.887Z,10.30
2018-04-25T10:35:07.912Z,13.93
2018-04-25T10:37:36.188Z,11.60
2018-04-25T10:40:04.443Z,9.00
2018-04-25T10:42:33.466Z,11.00
2018-04-25T10:45:01.720Z,7.83
2018-04-25T10:47:30.758Z,9.18
2018-04-25T10:49:59.850Z,8.93
2018-04-25T10:52:28.111Z,9.88
2018-04-25T10:54:56.364Z,9.60
2018-04-25T10:57:24.646Z,11.53
2018-04-25T10:59:52.893Z,12.30
2018-04-25T11:02:21.169Z,9.93
2018-04-25T11:04:49.411Z,8.10
2018-04-25T11:07:17.706Z,9.73
2018-04-25T11:09:46.726Z,8.98
2018-04-25T11:12:15.007Z,11.98
2018-04-25T11:14:43.263Z,13.10
2018-04-25T11:17:11.525Z,9.47
2018-04-25T11:19:39.771Z,9.13
2018-04-25T11:22:08.056Z,7.10
2018-04-25T11:24:36.308Z,11.05
2018-04-25T11:27:04.600Z,7.33
2018-04-25T11:29:32.857Z,8.40
2018-04-25T11:32:01.213Z,9.35
2018-04-25T11:34:29.379Z,9.65
2018-04-25T11:36:58.403Z,10.03
2018-04-25T11:39:26.666Z,10.30
2018-04-25T11:41:54.942Z,10.98
2018-04-25T11:44:23.959Z,11.32
2018-04-25T11:46:52.226Z,6.13
2018-04-25T11:49:21.239Z,9.87
2018-04-25T11:51:49.500Z,7.85
2018-04-25T11:54:18.515Z,7.93
2018-04-25T11:56:46.768Z,12.07
2018-04-25T11:59:15.796Z,9.85
2018-04-25T12:01:44.043Z,7.85
2018-04-25T12:04:13.079Z,11.43
2018-04-25T12:06:41.336Z,11.25
2018-04-25T12:09:10.459Z,13.48
2018-04-25T12:11:38.710Z,9.20
2018-04-25T12:14:07.448Z,10.92
2018-04-25T12:16:35.711Z,5.68
2018-04-25T12:19:03.977Z,10.17
2018-04-25T12:21:32.222Z,8.10
2018-04-25T12:24:00.496Z,9.23
2018-04-25T12:26:28.748Z,10.35
2018-04-25T12:28:57.019Z,10.10
2018-04-25T12:31:25.282Z,10.10
2018-04-25T12:33:53.551Z,8.63
2018-04-25T12:36:21.818Z,10.48
2018-04-25T12:38:50.853Z,8.80
2018-04-25T12:41:19.116Z,11.77
2018-04-25T12:43:47.376Z,7.05
2018-04-25T12:46:16.404Z,13.27
2018-04-25T12:48:44.680Z,6.15
2018-04-25T12:51:12.940Z,12.47
2018-04-25T12:53:41.970Z,10.07
2018-04-25T12:56:10.233Z,9.73
2018-04-25T12:58:38.500Z,9.80
2018-04-25T13:01:07.528Z,8.37
2018-04-25T13:03:35.787Z,8.32
2018-04-25T13:06:04.048Z,14.32
2018-04-25T13:08:33.079Z,10.38
2018-04-25T13:11:01.330Z,9.10
2018-04-25T13:13:30.351Z,8.20
2018-04-25T13:15:58.594Z,8.95
2018-04-25T13:18:26.877Z,10.32
2018-04-25T13:20:55.159Z,12.17
2018-04-25T13:23:23.430Z,9.30
2018-04-25T13:25:52.272Z,8.04
2018-04-25T13:28:20.544Z,8.90
2018-04-25T13:30:48.803Z,9.27
2018-04-25T13:33:17.831Z,8.68
2018-04-25T13:35:46.093Z,8.80
2018-04-25T13:38:15.127Z,10.73
2018-04-25T13:40:43.366Z,10.80
2018-04-25T13:43:13.711Z,8.80
2018-04-25T13:45:41.891Z,9.02
2018-04-25T13:48:10.159Z,9.40
2018-04-25T13:50:39.188Z,11.15
2018-04-25T13:53:07.450Z,13.40
2018-04-25T13:55:35.708Z,11.85
2018-04-25T13:58:05.678Z,9.12
2018-04-25T14:00:33.930Z,11.00
2018-04-25T14:03:02.199Z,9.57
2018-04-25T14:05:31.237Z,10.83
2018-04-25T14:07:59.479Z,10.80
2018-04-25T14:10:27.747Z,12.65
2018-04-25T14:12:56.784Z,13.80
2018-04-25T14:15:25.028Z,11.97
2018-04-25T14:17:54.043Z,9.52
2018-04-25T14:20:22.308Z,11.30
2018-04-25T14:22:51.339Z,12.80
2018-04-25T14:25:19.614Z,10.47
2018-04-25T14:27:47.870Z,13.87
2018-04-25T14:30:16.180Z,12.48
2018-04-25T14:32:45.168Z,12.57
2018-04-25T14:35:14.675Z,12.53
2018-04-25T14:37:42.930Z,14.30
2018-04-25T14:40:11.958Z,13.38
2018-04-25T14:42:40.219Z,18.05
2018-04-25T14:45:08.487Z,11.25
2018-04-25T14:47:37.509Z,13.07
2018-04-25T14:50:05.772Z,14.32
2018-04-25T14:52:34.799Z,13.57
2018-04-25T14:55:03.072Z,14.00
2018-04-25T14:57:31.319Z,16.83
2018-04-25T15:00:00.357Z,13.70
2018-04-25T15:02:30.064Z,18.94
2018-04-25T15:04:58.326Z,11.63
2018-04-25T15:07:27.346Z,10.50
2018-04-25T15:09:55.615Z,15.27
2018-04-25T15:12:23.876Z,12.23
2018-04-25T15:14:52.902Z,12.25
2018-04-25T15:17:21.163Z,13.77
2018-04-25T15:19:49.459Z,9.10
2018-04-25T15:22:18.465Z,19.77
2018-04-25T15:24:46.719Z,15.18
2018-04-25T15:27:17.016Z,14.75
2018-04-25T15:29:45.305Z,19.83
2018-04-25T15:32:13.569Z,12.10
2018-04-25T15:34:41.834Z,16.80
2018-04-25T15:37:10.104Z,11.82
2018-04-25T15:39:38.371Z,10.75
2018-04-25T15:42:06.631Z,12.07
2018-04-25T15:44:35.186Z,13.78
2018-04-25T15:47:03.436Z,14.52
2018-04-25T15:49:31.694Z,14.52
2018-04-25T15:51:59.964Z,20.63
2018-04-25T15:54:28.211Z,16.08
2018-04-25T15:56:56.479Z,14.87
2018-04-25T15:59:24.744Z,14.20
2018-04-25T16:01:53.003Z,15.17
2018-04-25T16:04:21.262Z,12.10
2018-04-25T16:06:49.539Z,10.00
2018-04-25T16:09:18.042Z,15.17
2018-04-25T16:11:46.306Z,15.60
2018-04-25T16:14:15.323Z,15.43
2018-04-25T16:16:43.591Z,13.75
2018-04-25T16:19:11.843Z,14.80
2018-04-25T16:21:40.106Z,15.85
2018-04-25T16:24:08.365Z,12.05
2018-04-25T16:26:39.481Z,10.50
2018-04-25T16:29:07.726Z,18.10
2018-04-25T16:31:35.994Z,14.70
2018-04-25T16:34:04.248Z,15.38
2018-04-25T16:36:32.515Z,17.90
2018-04-25T16:39:00.788Z,13.85
2018-04-25T16:41:29.054Z,13.70
2018-04-25T16:43:57.306Z,14.73
2018-04-25T16:46:25.574Z,15.60
2018-04-25T16:48:53.831Z,15.35
2018-04-25T16:51:22.100Z,12.27
2018-04-25T16:53:50.359Z,12.30
2018-04-25T16:56:18.620Z,14.85
2018-04-25T16:58:47.638Z,15.10
2018-04-25T17:01:15.903Z,12.63
2018-04-25T17:03:44.931Z,13.32
2018-04-25T17:06:13.212Z,14.43
2018-04-25T17:08:41.478Z,16.77
2018-04-25T17:11:09.727Z,13.40
2018-04-25T17:13:38.030Z,16.53
2018-04-25T17:16:06.292Z,12.75
2018-04-25T17:18:34.547Z,16.95
2018-04-25T17:21:02.818Z,18.48
2018-04-25T17:23:31.074Z,13.50
2018-04-25T17:25:59.336Z,16.63
2018-04-25T17:28:29.465Z,19.56
2018-04-25T17:30:57.731Z,15.77
2018-04-25T17:33:26.767Z,13.97
2018-04-25T17:35:55.035Z,14.85
2018-04-25T17:38:23.287Z,15.60
2018-04-25T17:40:52.324Z,18.62
2018-04-25T17:43:21.135Z,14.75
2018-04-25T17:45:49.422Z,16.67
2018-04-25T17:48:17.720Z,16.20
2018-04-25T17:50:45.999Z,21.40
2018-04-25T17:53:14.247Z,17.10
2018-04-25T17:55:42.527Z,13.43
2018-04-25T17:58:10.798Z,15.82
2018-04-25T18:00:39.051Z,15.13
2018-04-25T18:03:07.371Z,16.85
2018-04-25T18:05:36.349Z,18.37
2018-04-25T18:08:04.611Z,12.35
2018-04-25T18:10:32.865Z,12.77
2018-04-25T18:13:01.151Z,24.95
2018-04-25T18:15:30.171Z,20.70
2018-04-25T18:17:58.441Z,19.53
2018-04-25T18:20:28.708Z,17.40
2018-04-25T18:22:56.978Z,17.42
2018-04-25T18:25:25.223Z,14.87
2018-04-25T18:27:54.245Z,16.55
2018-04-25T18:30:22.596Z,18.42
2018-04-25T18:32:50.794Z,17.20
2018-04-25T18:35:19.055Z,13.43
2018-04-25T18:37:47.324Z,18.62
2018-04-25T18:40:15.586Z,17.63
2018-04-25T18:42:43.859Z,14.02
2018-04-25T18:45:12.116Z,17.17
2018-04-25T18:47:40.380Z,14.43
2018-04-25T18:50:08.647Z,13.03
2018-04-25T18:52:37.679Z,16.23
2018-04-25T18:55:05.940Z,14.80
2018-04-25T18:57:34.264Z,16.37
2018-04-25T19:00:03.234Z,11.30
2018-04-25T19:02:31.493Z,17.20
2018-04-25T19:04:59.762Z,11.70
2018-04-25T19:07:28.029Z,10.60
2018-04-25T19:09:56.289Z,18.80
2018-04-25T19:12:24.566Z,14.93
2018-04-25T19:14:52.815Z,16.23
2018-04-25T19:17:21.107Z,12.33
2018-04-25T19:19:49.354Z,16.17
2018-04-25T19:22:18.383Z,9.57
2018-04-25T19:24:46.640Z,13.90
2018-04-25T19:27:14.909Z,12.80
2018-04-25T19:29:43.931Z,10.53
2018-04-25T19:32:12.191Z,12.93
2018-04-25T19:34:41.214Z,15.70
2018-04-25T19:37:09.730Z,16.83
2018-04-25T19:39:37.987Z,11.60
2018-04-25T19:42:06.239Z,14.73
2018-04-25T19:44:34.515Z,13.63
2018-04-25T19:47:03.547Z,12.77
2018-04-25T19:49:31.795Z,9.20
2018-04-25T19:52:00.073Z,14.35
2018-04-25T19:54:29.096Z,11.03
2018-04-25T19:56:57.355Z,16.53
2018-04-25T19:59:26.682Z,8.90
2018-04-25T20:01:54.939Z,10.03
2018-04-25T20:04:23.219Z,10.60
2018-04-25T20:06:52.233Z,10.10
2018-04-25T20:09:20.500Z,9.70
2018-04-25T20:11:48.761Z,9.63
2018-04-25T20:14:17.026Z,12.00
2018-04-25T20:16:45.275Z,9.97
2018-04-25T20:19:13.535Z,12.13
2018-04-25T20:21:41.795Z,12.50
2018-04-25T20:24:10.821Z,11.77
2018-04-25T20:26:39.106Z,13.53
2018-04-25T20:29:07.471Z,17.02
2018-04-25T20:31:35.727Z,11.80
2018-04-25T20:34:04.816Z,14.43
2018-04-25T20:36:33.061Z,13.87
2018-04-25T20:39:01.328Z,11.87
2018-04-25T20:41:29.585Z,15.43
2018-04-25T20:43:57.852Z,9.30
2018-04-25T20:46:26.881Z,10.83
2018-04-25T20:48:55.144Z,13.40
2018-04-25T20:51:23.398Z,12.50
2018-04-25T20:53:52.434Z,12.63
2018-04-25T20:56:20.684Z,9.97
2018-04-25T20:58:49.720Z,9.80
2018-04-25T21:01:17.975Z,8.77
2018-04-25T21:03:47.015Z,9.27
2018-04-25T21:06:15.271Z,11.17
2018-04-25T21:08:43.539Z,12.57
2018-04-25T21:11:12.684Z,8.13
2018-04-25T21:13:40.915Z,17.67
2018-04-25T21:16:10.022Z,11.97
2018-04-25T21:18:38.286Z,10.23
2018-04-25T21:21:07.324Z,10.43
2018-04-25T21:23:35.589Z,11.30
2018-04-25T21:26:03.838Z,13.73
2018-04-25T21:28:32.871Z,11.47
2018-04-25T21:31:01.137Z,9.50
2018-04-25T21:33:29.411Z,11.33
2018-04-25T21:35:58.431Z,9.97
2018-04-25T21:38:26.700Z,7.13
2018-04-25T21:40:54.960Z,11.37
2018-04-25T21:43:23.992Z,12.60
2018-04-25T21:45:52.249Z,13.05
2018-04-25T21:48:22.522Z,10.20
2018-04-25T21:50:50.851Z,9.67
2018-04-25T21:53:19.059Z,11.80
2018-04-25T21:55:47.307Z,6.82
2018-04-25T21:58:16.236Z,7.45
2018-04-25T22:00:44.492Z,6.97
2018-04-25T22:03:12.754Z,7.87
2018-04-25T22:05:41.770Z,11.17
2018-04-25T22:08:10.036Z,12.37
2018-04-25T22:10:39.059Z,11.80
2018-04-25T22:13:07.327Z,9.07
2018-04-25T22:15:36.355Z,11.90
2018-04-25T22:18:04.597Z,9.77
2018-04-25T22:20:33.630Z,11.67
2018-04-25T22:23:01.884Z,8.60
2018-04-25T22:25:31.618Z,20.45
2018-04-25T22:27:59.875Z,24.03
2018-04-25T22:30:29.057Z,15.43
2018-04-25T22:32:57.312Z,14.97
2018-04-25T22:35:25.576Z,15.20
2018-04-25T22:37:53.837Z,16.20
2018-04-25T22:40:22.450Z,18.90
2018-04-25T22:42:50.707Z,19.27
2018-04-25T22:45:18.975Z,15.80
2018-04-25T22:47:47.232Z,12.20
2018-04-25T22:50:16.275Z,14.37
2018-04-25T22:52:44.527Z,16.57
2018-04-25T22:55:13.796Z,15.47
2018-04-25T22:57:42.052Z,14.02
2018-04-25T23:00:10.308Z,18.40
2018-04-25T23:02:38.571Z,16.87
2018-04-25T23:05:07.599Z,16.57
2018-04-25T23:07:35.855Z,13.90
2018-04-25T23:10:04.147Z,15.30
2018-04-25T23:12:32.404Z,21.80
2018-04-25T23:15:01.431Z,15.13
2018-04-25T23:17:29.682Z,16.93
2018-04-25T23:19:58.711Z,22.75
2018-04-25T23:22:27.326Z,19.00
2018-04-25T23:24:55.633Z,20.93
2018-04-25T23:27:24.102Z,18.77
2018-04-25T23:29:52.367Z,16.20
2018-04-25T23:32:20.627Z,17.33
2018-04-25T23:34:48.894Z,21.23
2018-04-25T23:37:17.169Z,20.00
2018-04-25T23:39:45.431Z,15.23
2018-04-25T23:42:14.446Z,22.63
2018-04-25T23:44:42.930Z,18.20
2018-04-25T23:47:11.941Z,14.17
2018-04-25T23:49:40.198Z,16.03
2018-04-25T23:52:09.250Z,16.33
2018-04-25T23:54:37.502Z,14.97
2018-04-25T23:57:05.753Z,15.63
2018-04-25T23:59:34.071Z,14.17
